Time;durP1;ratioP1;P1;durP2;ratioP2;P2;SDS_P1;SDS_P2;PMS_P1;PMS_P2;Temp;Humidity;BMP_temperature;BMP_pressure;BME280_temperature;BME280_humidity;BME280_pressure;Samples;Min_cycle;Max_cycle;Signal;HPM_P1;HPM_P2
2021/12/01 10:35:35;;;;;;;8.05;1.73;;;8.30;99.90;;;;;;5084505;27;20929;-68
2021/12/01 10:38:01;;;;;;;8.73;2.05;;;8.30;99.90;;;;;;5049381;28;20044;-68
2021/12/01 10:40:27;;;;;;;12.00;1.92;;;8.30;99.90;;;;;;5052100;28;20028;-66
2021/12/01 10:43:01;;;;;;;4.68;1.30;;;8.20;99.90;;;;;;5051876;28;20040;-69
2021/12/01 10:45:29;;;;;;;12.57;1.65;;;8.20;99.90;;;;;;5052981;28;20049;-67
2021/12/01 10:47:55;;;;;;;7.93;1.25;;;8.20;99.90;;;;;;5035201;28;20040;-68
2021/12/01 10:50:25;;;;;;;14.85;1.67;;;8.20;99.90;;;;;;5052350;28;20060;-68
2021/12/01 10:52:54;;;;;;;9.95;1.50;;;8.20;99.90;;;;;;5080564;28;20049;-67
2021/12/01 10:55:22;;;;;;;11.90;1.70;;;8.20;99.90;;;;;;5058237;28;20110;-67
2021/12/01 10:57:58;;;;;;;14.15;1.95;;;8.30;99.90;;;;;;5052767;28;20114;-69
2021/12/01 11:00:30;;;;;;;10.35;1.42;;;8.30;99.90;;;;;;5052275;28;20483;-68
2021/12/01 11:03:13;;;;;;;11.45;1.52;;;8.20;99.90;;;;;;5050670;28;20036;-67
2021/12/01 11:05:43;;;;;;;7.57;1.30;;;8.10;99.90;;;;;;5039180;28;20300;-67
2021/12/01 11:08:11;;;;;;;9.52;1.75;;;8.10;99.90;;;;;;5072041;28;20040;-69
2021/12/01 11:10:37;;;;;;;10.55;1.30;;;8.20;99.90;;;;;;5054450;28;20055;-68
2021/12/01 11:13:04;;;;;;;7.88;1.40;;;8.10;99.90;;;;;;5039553;28;20041;-66
2021/12/01 11:15:37;;;;;;;6.13;1.48;;;8.10;99.90;;;;;;5056521;28;20055;-70
2021/12/01 11:18:05;;;;;;;15.43;1.65;;;8.10;99.90;;;;;;5050055;28;20045;-66
2021/12/01 11:20:35;;;;;;;7.20;1.75;;;8.10;99.90;;;;;;5053218;28;20033;-68
2021/12/01 11:23:09;;;;;;;7.05;1.13;;;8.10;99.90;;;;;;5044891;28;20495;-65
2021/12/01 11:25:36;;;;;;;9.75;1.77;;;8.10;99.90;;;;;;5074461;28;20590;-65
2021/12/01 11:28:03;;;;;;;11.07;1.52;;;8.10;99.90;;;;;;5056066;28;20408;-69
2021/12/01 11:30:29;;;;;;;9.75;1.80;;;8.10;99.90;;;;;;5039833;28;20306;-65
2021/12/01 11:32:55;;;;;;;13.05;1.63;;;8.10;99.90;;;;;;5055735;28;20136;-67
2021/12/01 11:35:21;;;;;;;10.40;1.75;;;8.10;99.90;;;;;;5056533;28;20035;-64
2021/12/01 11:37:55;;;;;;;13.05;1.88;;;8.10;99.90;;;;;;5053797;28;20071;-69
2021/12/01 11:40:21;;;;;;;7.85;1.55;;;8.10;99.90;;;;;;5038824;28;20036;-64
2021/12/01 11:42:47;;;;;;;12.73;2.20;;;8.10;99.90;;;;;;5056352;28;20051;-65
2021/12/01 11:45:14;;;;;;;11.43;1.83;;;8.10;99.90;;;;;;5057605;28;20052;-64
2021/12/01 11:47:46;;;;;;;8.18;1.85;;;8.10;99.90;;;;;;5088934;28;20058;-65
2021/12/01 11:50:27;;;;;;;12.00;2.08;;;8.10;99.90;;;;;;5055553;28;20078;-64
2021/12/01 11:53:08;;;;;;;9.63;2.08;;;8.10;99.90;;;;;;5052436;28;20055;-66
2021/12/01 11:56:03;;;;;;;8.10;1.95;;;8.00;99.90;;;;;;5055178;28;20041;-63
2021/12/01 11:58:41;;;;;;;8.13;1.40;;;8.00;99.90;;;;;;5038957;28;20118;-65
2021/12/01 12:01:22;;;;;;;11.52;2.45;;;8.00;99.90;;;;;;5072598;28;20259;-65
2021/12/01 12:03:53;;;;;;;10.65;1.90;;;8.00;99.90;;;;;;5088625;28;20396;-63
2021/12/01 12:06:22;;;;;;;13.40;2.20;;;8.00;99.90;;;;;;5053995;28;20041;-64
2021/12/01 12:08:54;;;;;;;17.38;2.30;;;7.90;99.90;;;;;;5054436;28;20048;-63
2021/12/01 12:11:38;;;;;;;16.30;2.60;;;7.90;99.90;;;;;;5055309;28;20040;-64
2021/12/01 12:14:09;;;;;;;12.63;2.25;;;7.90;99.90;;;;;;5053587;28;20136;-65
2021/12/01 12:16:38;;;;;;;13.70;2.15;;;7.90;99.90;;;;;;5071039;28;20052;-64
2021/12/01 12:19:04;;;;;;;18.48;2.83;;;7.90;99.90;;;;;;5055119;28;20224;-66
2021/12/01 12:21:45;;;;;;;15.18;2.67;;;8.00;99.90;;;;;;5072057;28;20931;-64
2021/12/01 12:24:17;;;;;;;16.55;2.60;;;8.10;99.90;;;;;;5054099;28;20357;-63
2021/12/01 12:26:49;;;;;;;20.45;2.78;;;8.30;99.90;;;;;;5054263;28;20033;-67
2021/12/01 12:29:16;;;;;;;14.85;2.42;;;8.30;99.90;;;;;;5055380;28;20454;-64
2021/12/01 12:31:43;;;;;;;19.00;2.75;;;8.20;99.90;;;;;;5055035;28;20041;-66
2021/12/01 12:34:18;;;;;;;14.90;2.35;;;7.80;99.90;;;;;;5054851;28;20041;-65
2021/12/01 12:36:49;;;;;;;12.52;2.95;;;7.80;99.90;;;;;;5053048;28;20098;-63
2021/12/01 12:39:31;;;;;;;19.55;2.40;;;7.70;99.90;;;;;;5087448;28;20049;-67
2021/12/01 12:41:57;;;;;;;16.98;2.80;;;7.60;99.90;;;;;;5055250;28;20037;-65
2021/12/01 12:44:48;;;;;;;16.02;2.30;;;7.40;99.90;;;;;;5055089;28;20083;-66
2021/12/01 12:47:22;;;;;;;16.27;2.58;;;7.50;99.90;;;;;;5072720;28;20044;-65
2021/12/01 12:50:02;;;;;;;14.32;2.20;;;7.40;99.90;;;;;;5088226;28;20476;-64
2021/12/01 12:52:29;;;;;;;9.82;2.17;;;7.20;99.90;;;;;;5077673;28;20041;-67
2021/12/01 12:55:00;;;;;;;12.93;2.67;;;7.10;99.90;;;;;;5066944;28;20045;-65
2021/12/01 12:57:56;;;;;;;12.20;2.05;;;7.10;99.90;;;;;;5052902;28;20040;-65
2021/12/01 13:00:32;;;;;;;10.90;2.33;;;7.10;99.90;;;;;;5050627;28;20032;-68
2021/12/01 13:03:20;;;;;;;17.92;2.33;;;7.10;99.90;;;;;;5054300;28;20048;-67
2021/12/01 13:05:46;;;;;;;13.10;1.90;;;6.90;99.90;;;;;;5054455;28;20055;-66
2021/12/01 13:08:33;;;;;;;13.05;2.88;;;7.00;99.90;;;;;;5069695;28;20037;-67
2021/12/01 13:11:14;;;;;;;9.50;1.45;;;6.90;99.90;;;;;;5071876;28;20080;-66
2021/12/01 13:13:48;;;;;;;10.20;1.88;;;6.90;99.90;;;;;;5054723;28;20075;-67
2021/12/01 13:16:16;;;;;;;6.03;1.50;;;7.00;99.90;;;;;;5072447;28;20393;-67
2021/12/01 13:18:48;;;;;;;12.65;2.40;;;7.00;99.90;;;;;;5042983;28;20041;-66
2021/12/01 13:21:16;;;;;;;10.52;1.67;;;7.00;99.90;;;;;;5032963;28;20124;-66
2021/12/01 13:23:46;;;;;;;11.77;1.90;;;7.00;99.90;;;;;;5068220;28;20119;-67
2021/12/01 13:26:27;;;;;;;8.80;1.55;;;7.10;99.90;;;;;;5087003;28;20479;-66
2021/12/01 13:28:57;;;;;;;9.05;1.20;;;7.10;99.90;;;;;;5054234;28;20109;-64
2021/12/01 13:31:30;;;;;;;11.45;1.70;;;7.20;99.90;;;;;;5086557;28;20036;-64
2021/12/01 13:34:30;;;;;;;8.15;2.05;;;7.10;99.90;;;;;;5087597;28;20044;-66
2021/12/01 13:37:01;;;;;;;8.30;1.60;;;7.10;99.90;;;;;;5052376;28;20052;-66
2021/12/01 13:39:29;;;;;;;6.70;1.77;;;7.00;99.90;;;;;;5070390;28;20032;-66
2021/12/01 13:41:59;;;;;;;8.32;1.70;;;7.10;99.90;;;;;;5072035;28;20066;-66
2021/12/01 13:44:31;;;;;;;9.40;2.22;;;7.10;99.90;;;;;;5037560;28;20048;-66
2021/12/01 13:47:14;;;;;;;11.52;1.67;;;7.00;99.90;;;;;;5052898;28;20052;-69
2021/12/01 13:49:50;;;;;;;10.38;1.80;;;7.00;99.90;;;;;;5087136;28;20349;-68
2021/12/01 13:52:39;;;;;;;8.52;2.30;;;7.00;99.90;;;;;;5085408;28;20155;-67
2021/12/01 13:55:23;;;;;;;10.35;1.60;;;7.00;99.90;;;;;;5052231;28;20147;-66
2021/12/01 13:58:09;;;;;;;11.73;1.67;;;7.00;99.90;;;;;;5071798;28;20044;-66
2021/12/01 14:00:39;;;;;;;8.20;1.50;;;7.10;99.90;;;;;;5072023;28;20067;-67
2021/12/01 14:03:08;;;;;;;5.43;1.17;;;6.80;99.90;;;;;;5052572;28;20067;-66
2021/12/01 14:05:34;;;;;;;8.02;1.90;;;6.90;99.90;;;;;;5071831;28;20167;-67
2021/12/01 14:08:11;;;;;;;8.63;1.65;;;6.90;99.90;;;;;;5050861;28;20060;-67
2021/12/01 14:10:53;;;;;;;7.88;1.67;;;6.90;99.90;;;;;;5069952;28;20072;-69
2021/12/01 14:13:20;;;;;;;8.85;1.48;;;6.80;99.90;;;;;;5086656;28;20056;-71
2021/12/01 14:15:47;;;;;;;16.30;1.67;;;6.80;99.90;;;;;;5072029;28;20043;-66
2021/12/01 14:18:18;;;;;;;7.18;1.50;;;6.80;99.90;;;;;;5079059;28;20067;-67
2021/12/01 14:20:44;;;;;;;11.05;1.90;;;6.80;99.90;;;;;;5040286;28;20032;-68
2021/12/01 14:23:10;;;;;;;12.02;1.77;;;6.80;99.90;;;;;;5050654;28;20044;-67
2021/12/01 14:25:36;;;;;;;15.75;1.98;;;6.80;99.90;;;;;;5070965;28;20115;-69
2021/12/01 14:28:11;;;;;;;25.13;3.10;;;6.70;99.90;;;;;;5086701;28;20143;-67
2021/12/01 14:30:44;;;;;;;12.85;1.90;;;6.70;99.90;;;;;;5053652;28;20101;-68
2021/12/01 14:33:14;;;;;;;14.55;2.00;;;6.60;99.90;;;;;;5052540;28;20048;-68
2021/12/01 14:35:41;;;;;;;9.75;1.88;;;6.60;99.90;;;;;;5086276;28;20106;-70
2021/12/01 14:38:07;;;;;;;10.05;1.60;;;6.50;99.90;;;;;;5033347;28;20078;-68
2021/12/01 14:40:53;;;;;;;12.63;1.90;;;6.50;99.90;;;;;;5052366;28;20385;-68
2021/12/01 14:43:32;;;;;;;10.95;1.67;;;6.50;99.90;;;;;;5052453;28;20052;-70
2021/12/01 14:46:28;;;;;;;15.15;1.83;;;6.50;99.90;;;;;;5036493;28;20058;-67
2021/12/01 14:49:22;;;;;;;10.40;1.63;;;6.40;99.90;;;;;;5069109;28;20059;-68
2021/12/01 14:51:50;;;;;;;10.27;1.92;;;6.30;99.90;;;;;;5047973;28;20060;-67
2021/12/01 14:54:25;;;;;;;8.05;2.10;;;6.30;99.90;;;;;;5070054;28;20029;-69
2021/12/01 14:57:07;;;;;;;11.75;1.80;;;6.20;99.90;;;;;;5070588;28;20056;-69
2021/12/01 14:59:33;;;;;;;10.73;1.45;;;6.20;99.90;;;;;;5036598;28;20120;-68
2021/12/01 15:02:14;;;;;;;11.30;1.88;;;6.10;99.90;;;;;;5070662;28;20041;-69
2021/12/01 15:05:03;;;;;;;13.50;2.00;;;6.10;99.90;;;;;;5052211;28;20041;-68
2021/12/01 15:07:29;;;;;;;7.70;1.58;;;6.00;99.90;;;;;;5051268;28;20388;-67
2021/12/01 15:10:09;;;;;;;11.63;2.00;;;6.00;99.90;;;;;;5051434;28;20139;-68
2021/12/01 15:12:35;;;;;;;15.00;1.85;;;6.10;99.90;;;;;;5085961;28;20408;-70
2021/12/01 15:15:19;;;;;;;8.27;1.58;;;6.00;99.90;;;;;;5052810;28;20110;-67
2021/12/01 15:18:01;;;;;;;10.13;1.60;;;5.90;99.90;;;;;;5048886;28;20065;-68
2021/12/01 15:20:29;;;;;;;7.68;1.50;;;5.90;99.90;;;;;;5071845;28;20440;-68
2021/12/01 15:23:00;;;;;;;10.15;1.75;;;5.70;99.90;;;;;;5050459;28;20122;-67
2021/12/01 15:25:26;;;;;;;11.95;2.05;;;5.70;99.90;;;;;;5085882;28;20047;-68
2021/12/01 15:27:52;;;;;;;11.88;1.30;;;5.60;99.90;;;;;;5085474;28;20044;-66
2021/12/01 15:30:17;;;;;;;7.90;1.75;;;5.60;99.90;;;;;;5086234;28;20040;-66
2021/12/01 15:32:43;;;;;;;11.13;2.00;;;5.70;99.90;;;;;;5068616;28;20110;-69
2021/12/01 15:35:08;;;;;;;11.27;2.30;;;5.70;99.90;;;;;;5085879;28;20036;-68
2021/12/01 15:37:35;;;;;;;8.73;1.70;;;5.70;99.90;;;;;;5083286;28;20419;-66
2021/12/01 15:40:01;;;;;;;14.68;2.03;;;5.60;99.90;;;;;;5050596;28;20040;-68
2021/12/01 15:42:26;;;;;;;7.22;1.67;;;5.70;99.90;;;;;;5052268;28;20037;-66
2021/12/01 15:44:52;;;;;;;14.27;2.70;;;5.70;99.90;;;;;;5052229;28;20120;-67
2021/12/01 15:47:21;;;;;;;10.05;3.22;;;5.60;99.90;;;;;;5051896;28;20047;-67
2021/12/01 15:49:47;;;;;;;9.33;1.97;;;5.70;99.90;;;;;;5053227;28;20044;-66
2021/12/01 15:52:13;;;;;;;6.82;1.67;;;5.60;99.90;;;;;;5047331;28;20052;-67
2021/12/01 15:54:38;;;;;;;9.95;2.50;;;5.60;99.90;;;;;;5067548;28;20041;-67
2021/12/01 15:57:04;;;;;;;14.07;2.22;;;5.50;99.90;;;;;;5036119;28;20041;-66
2021/12/01 15:59:30;;;;;;;10.85;2.33;;;5.50;99.90;;;;;;5087100;28;20131;-67
2021/12/01 16:01:55;;;;;;;11.50;2.15;;;5.60;99.90;;;;;;5089184;28;20136;-71
2021/12/01 16:04:21;;;;;;;11.18;2.67;;;5.60;99.90;;;;;;5088689;28;20099;-66
2021/12/01 16:06:47;;;;;;;14.85;2.53;;;5.60;99.90;;;;;;5053336;28;20126;-68
2021/12/01 16:09:15;;;;;;;13.82;1.83;;;5.50;99.90;;;;;;5072568;28;20029;-66
2021/12/01 16:11:40;;;;;;;12.25;1.88;;;5.60;99.90;;;;;;5054703;28;20033;-67
2021/12/01 16:14:08;;;;;;;11.95;2.20;;;5.50;99.90;;;;;;5055738;28;20032;-66
2021/12/01 16:16:34;;;;;;;15.02;1.92;;;5.50;99.90;;;;;;5055777;28;20437;-68
2021/12/01 16:18:59;;;;;;;13.77;2.15;;;5.60;99.90;;;;;;5054122;28;20036;-67
2021/12/01 16:21:25;;;;;;;7.85;2.22;;;5.60;99.90;;;;;;5052149;28;20206;-65
2021/12/01 16:23:51;;;;;;;11.65;2.40;;;5.60;99.90;;;;;;5053180;28;20787;-67
2021/12/01 16:26:17;;;;;;;9.85;2.42;;;5.50;99.90;;;;;;5054918;28;20440;-67
2021/12/01 16:28:47;;;;;;;11.50;2.65;;;5.40;99.90;;;;;;5054119;28;20040;-66
2021/12/01 16:31:15;;;;;;;17.42;3.35;;;5.40;99.90;;;;;;5054506;28;20032;-67
2021/12/01 16:33:41;;;;;;;10.38;2.08;;;5.40;99.90;;;;;;5051215;28;20041;-67
2021/12/01 16:36:06;;;;;;;13.38;2.78;;;5.30;99.90;;;;;;5052578;28;20514;-67
2021/12/01 16:38:35;;;;;;;15.50;2.67;;;5.40;99.90;;;;;;5052573;28;20102;-67
2021/12/01 16:41:01;;;;;;;11.63;2.67;;;5.40;99.90;;;;;;5087662;28;20044;-68
2021/12/01 16:43:28;;;;;;;9.55;1.75;;;5.40;99.90;;;;;;5038348;28;20041;-66
2021/12/01 16:45:54;;;;;;;25.17;4.35;;;5.40;99.90;;;;;;5088863;28;20056;-65
2021/12/01 16:48:20;;;;;;;10.18;2.50;;;5.30;99.90;;;;;;5053642;28;20048;-66
2021/12/01 16:50:46;;;;;;;17.00;2.40;;;5.30;99.90;;;;;;5052801;28;20046;-68
2021/12/01 16:53:12;;;;;;;16.92;2.40;;;5.20;99.90;;;;;;5045476;28;20144;-67
2021/12/01 16:55:38;;;;;;;12.13;2.30;;;5.30;99.90;;;;;;5058842;28;20040;-67
2021/12/01 16:58:05;;;;;;;11.88;2.22;;;5.40;99.90;;;;;;5072886;28;20091;-67
2021/12/01 17:00:36;;;;;;;9.15;1.95;;;5.30;99.90;;;;;;5053851;28;20044;-68
2021/12/01 17:03:06;;;;;;;12.98;1.80;;;5.30;99.90;;;;;;5056633;28;20046;-66
2021/12/01 17:05:32;;;;;;;;;;;5.30;99.90;;;;;;5055347;28;20041;-66
2021/12/01 17:10:24;;;;;;;9.98;1.65;;;5.20;99.90;;;;;;5052573;28;20048;-67
2021/12/01 17:12:50;;;;;;;10.77;1.95;;;5.20;99.90;;;;;;5070453;28;20044;-65
2021/12/01 17:15:17;;;;;;;12.95;1.85;;;5.30;99.90;;;;;;5054036;28;20044;-65
2021/12/01 17:17:43;;;;;;;9.07;1.92;;;5.20;99.90;;;;;;5051036;28;20546;-65
2021/12/01 17:20:10;;;;;;;8.68;2.45;;;5.20;99.90;;;;;;5084833;28;20044;-67
2021/12/01 17:22:38;;;;;;;9.52;1.83;;;5.20;99.90;;;;;;5035534;28;20048;-65
2021/12/01 17:25:09;;;;;;;10.60;1.90;;;5.10;99.90;;;;;;5051643;28;20086;-65
2021/12/01 17:27:36;;;;;;;10.38;1.80;;;5.10;99.90;;;;;;5031882;28;20040;-64
2021/12/01 17:30:02;;;;;;;7.68;1.90;;;5.10;99.90;;;;;;5059729;28;20495;-65
2021/12/01 17:32:29;;;;;;;7.95;1.52;;;4.90;99.90;;;;;;5042533;28;20040;-65
2021/12/01 17:34:55;;;;;;;7.65;1.67;;;5.00;99.90;;;;;;5053567;28;20104;-65
2021/12/01 17:37:21;;;;;;;12.00;1.98;;;5.00;99.90;;;;;;5070817;28;20060;-67
2021/12/01 17:39:49;;;;;;;3.67;0.93;;;4.90;99.90;;;;;;5052693;28;20044;-66
2021/12/01 17:42:19;;;;;;;7.10;1.10;;;4.90;99.90;;;;;;5053168;28;20486;-66
2021/12/01 17:44:44;;;;;;;6.43;1.42;;;4.90;99.90;;;;;;5070224;28;20102;-65
2021/12/01 17:47:11;;;;;;;7.25;1.67;;;4.90;99.90;;;;;;5070683;28;20384;-66
2021/12/01 17:49:37;;;;;;;13.27;1.70;;;5.00;99.90;;;;;;5051752;28;20044;-65
2021/12/01 17:52:05;;;;;;;7.30;1.15;;;4.90;99.90;;;;;;5043812;28;20110;-66
2021/12/01 17:54:33;;;;;;;6.22;1.35;;;5.00;99.90;;;;;;5043912;28;20400;-65
2021/12/01 17:57:03;;;;;;;8.00;1.48;;;5.00;99.90;;;;;;5015859;28;20033;-65
2021/12/01 17:59:29;;;;;;;6.72;1.23;;;5.00;99.90;;;;;;5053635;28;20388;-66
2021/12/01 18:01:55;;;;;;;6.63;1.20;;;5.10;99.90;;;;;;5035120;28;20047;-65
2021/12/01 18:04:20;;;;;;;8.73;1.17;;;5.20;99.90;;;;;;5053108;28;20064;-67
2021/12/01 18:06:48;;;;;;;7.03;1.38;;;5.10;99.90;;;;;;5051060;28;20040;-66
2021/12/01 18:09:15;;;;;;;15.27;2.45;;;5.10;99.90;;;;;;5052368;28;20584;-65
2021/12/01 18:11:42;;;;;;;7.47;1.33;;;5.10;99.90;;;;;;5050556;28;20051;-65
2021/12/01 18:14:08;;;;;;;6.18;1.10;;;5.00;99.90;;;;;;5052636;28;20036;-66
2021/12/01 18:16:35;;;;;;;10.38;1.45;;;5.10;99.90;;;;;;5052337;28;20040;-65
2021/12/01 18:19:01;;;;;;;6.88;1.15;;;5.00;99.90;;;;;;5070267;28;20063;-65
2021/12/01 18:21:27;;;;;;;8.85;1.45;;;5.00;99.90;;;;;;5052203;28;20534;-66
2021/12/01 18:23:53;;;;;;;8.60;1.08;;;5.00;99.90;;;;;;5052344;28;20044;-65
2021/12/01 18:26:19;;;;;;;6.97;0.93;;;5.00;99.90;;;;;;5050528;28;20162;-65
2021/12/01 18:28:44;;;;;;;6.45;1.33;;;5.10;99.90;;;;;;5084897;28;20163;-66
2021/12/01 18:31:10;;;;;;;7.82;1.15;;;5.00;99.90;;;;;;5060907;28;20159;-67
2021/12/01 18:33:39;;;;;;;7.82;1.52;;;5.10;99.90;;;;;;5069960;28;20052;-65
2021/12/01 18:36:08;;;;;;;13.65;1.30;;;5.10;99.90;;;;;;5066474;28;20052;-66
2021/12/01 18:38:35;;;;;;;5.07;1.23;;;5.00;99.90;;;;;;5036890;28;20041;-66
2021/12/01 18:41:01;;;;;;;7.40;1.10;;;5.10;99.90;;;;;;5068423;28;20037;-64
2021/12/01 18:43:27;;;;;;;9.05;1.65;;;5.10;99.90;;;;;;5052023;28;20123;-66
2021/12/01 18:45:53;;;;;;;10.88;1.90;;;5.10;99.90;;;;;;5053039;28;20515;-66
2021/12/01 18:48:18;;;;;;;5.55;1.13;;;5.10;99.90;;;;;;5071185;28;20041;-65
2021/12/01 18:50:44;;;;;;;13.50;1.70;;;5.10;99.90;;;;;;5052751;28;20040;-67
2021/12/01 18:53:10;;;;;;;7.22;1.63;;;5.20;99.90;;;;;;5051751;28;20461;-66
2021/12/01 18:55:36;;;;;;;8.35;1.98;;;5.20;99.90;;;;;;5033106;28;20044;-66
2021/12/01 18:58:01;;;;;;;11.20;1.70;;;5.20;99.90;;;;;;5025200;28;20485;-66
2021/12/01 19:00:30;;;;;;;10.10;1.35;;;5.10;99.90;;;;;;5051406;28;20463;-66
2021/12/01 19:02:56;;;;;;;6.47;1.35;;;5.10;99.90;;;;;;5035249;28;20045;-66
2021/12/01 19:05:22;;;;;;;10.05;1.60;;;5.10;99.90;;;;;;5070645;28;20105;-66
2021/12/01 19:07:48;;;;;;;10.25;1.83;;;5.00;99.90;;;;;;5052553;28;20598;-65
2021/12/01 19:10:20;;;;;;;8.07;1.25;;;5.10;99.90;;;;;;5050322;28;20468;-66
2021/12/01 19:12:45;;;;;;;11.35;1.52;;;5.10;99.90;;;;;;5050765;28;20078;-65
2021/12/01 19:15:12;;;;;;;5.18;0.90;;;5.10;99.90;;;;;;5085262;28;20638;-66
2021/12/01 19:17:37;;;;;;;7.05;1.00;;;5.10;99.90;;;;;;5070463;28;20049;-66
2021/12/01 19:20:05;;;;;;;9.80;1.50;;;5.10;99.90;;;;;;5070110;28;20097;-66
2021/12/01 19:22:33;;;;;;;5.93;0.98;;;5.10;99.90;;;;;;5051672;28;20082;-65
2021/12/01 19:25:01;;;;;;;6.32;1.42;;;5.10;99.90;;;;;;5053371;28;20357;-66
2021/12/01 19:27:26;;;;;;;3.88;1.10;;;5.00;99.90;;;;;;5053915;28;20090;-67
2021/12/01 19:29:52;;;;;;;6.70;1.10;;;5.00;99.90;;;;;;5072753;28;20134;-65
2021/12/01 19:32:17;;;;;;;6.03;1.00;;;5.00;99.90;;;;;;5073343;28;20083;-65
2021/12/01 19:34:44;;;;;;;5.13;0.98;;;5.00;99.90;;;;;;5089208;28;20047;-65
2021/12/01 19:37:10;;;;;;;2.78;0.60;;;4.90;99.90;;;;;;5055148;28;20056;-66
2021/12/01 19:39:38;;;;;;;5.28;0.80;;;4.90;99.90;;;;;;5055165;28;20047;-65
2021/12/01 19:42:06;;;;;;;4.05;0.80;;;4.90;99.90;;;;;;5053303;28;20037;-65
2021/12/01 19:44:33;;;;;;;3.60;0.70;;;4.80;99.90;;;;;;5055428;28;20032;-66
2021/12/01 19:46:59;;;;;;;3.60;0.90;;;4.80;99.90;;;;;;5073651;28;20116;-66
2021/12/01 19:49:25;;;;;;;5.82;0.95;;;4.80;99.90;;;;;;5055973;28;20037;-65
2021/12/01 19:51:54;;;;;;;3.88;0.88;;;4.80;99.90;;;;;;5054999;28;20038;-66
2021/12/01 19:54:21;;;;;;;2.95;0.70;;;4.80;99.90;;;;;;5038665;28;20107;-65
2021/12/01 19:56:47;;;;;;;6.88;1.25;;;4.70;99.90;;;;;;5069244;28;20780;-65
2021/12/01 19:59:14;;;;;;;3.22;1.30;;;4.70;99.90;;;;;;5054841;28;20071;-65
2021/12/01 20:01:41;;;;;;;7.60;1.13;;;4.60;99.90;;;;;;5055290;28;20036;-65
2021/12/01 20:04:07;;;;;;;3.90;1.10;;;4.50;99.90;;;;;;5055568;28;20380;-66
2021/12/01 20:06:33;;;;;;;7.97;1.00;;;4.50;99.90;;;;;;5054749;28;20040;-66
2021/12/01 20:09:03;;;;;;;9.43;1.00;;;4.40;99.90;;;;;;5054005;28;20385;-66
2021/12/01 20:11:30;;;;;;;4.90;1.08;;;4.50;99.90;;;;;;5054366;28;20086;-66
2021/12/01 20:13:59;;;;;;;3.92;1.15;;;4.50;99.90;;;;;;5037071;28;20045;-65
2021/12/01 20:16:24;;;;;;;7.47;1.67;;;4.50;99.90;;;;;;5055098;28;20032;-65
2021/12/01 20:18:50;;;;;;;5.07;1.65;;;4.50;99.90;;;;;;5069030;28;20090;-65
2021/12/01 20:21:18;;;;;;;6.93;1.10;;;4.50;99.90;;;;;;5054108;28;20037;-65
2021/12/01 20:23:47;;;;;;;8.93;1.30;;;4.50;99.90;;;;;;5052986;28;20044;-66
2021/12/01 20:26:13;;;;;;;5.85;0.90;;;4.60;99.90;;;;;;5052647;28;20059;-65
2021/12/01 20:28:41;;;;;;;8.80;1.30;;;4.50;99.90;;;;;;5069826;28;20028;-65
2021/12/01 20:31:07;;;;;;;8.25;0.95;;;4.50;99.90;;;;;;5080683;28;20037;-65
2021/12/01 20:33:34;;;;;;;5.00;1.30;;;4.50;99.90;;;;;;5048221;28;20503;-66
2021/12/01 20:36:04;;;;;;;6.03;1.10;;;4.50;99.90;;;;;;5052896;28;20064;-65
2021/12/01 20:38:29;;;;;;;9.30;1.25;;;4.50;99.90;;;;;;5033322;28;20167;-65
2021/12/01 20:40:55;;;;;;;4.85;1.55;;;4.60;99.90;;;;;;5053342;28;20523;-65
2021/12/01 20:43:21;;;;;;;11.55;2.13;;;4.60;99.90;;;;;;5051946;28;20037;-65
2021/12/01 20:46:04;;;;;;;8.07;1.20;;;4.50;99.90;;;;;;5053451;28;20033;-66
2021/12/01 20:54:18;;;;;;;7.88;1.15;;;4.20;99.90;;;;;;5047576;28;20048;-65
2021/12/01 20:59:57;;;;;;;5.68;1.58;;;4.20;99.90;;;;;;5052005;28;20102;-66
2021/12/01 21:02:23;;;;;;;10.48;2.20;;;4.30;99.90;;;;;;5043635;28;20055;-66
2021/12/01 21:04:48;;;;;;;5.80;1.13;;;4.40;99.90;;;;;;5052541;28;20033;-65
2021/12/01 21:07:14;;;;;;;8.52;1.40;;;4.40;99.90;;;;;;5071267;28;20083;-65
2021/12/01 21:09:52;;;;;;;6.13;1.10;;;4.40;99.90;;;;;;5071197;28;20123;-65
2021/12/01 21:12:20;;;;;;;7.35;1.17;;;4.30;99.90;;;;;;5051597;28;20094;-65
2021/12/01 21:14:46;;;;;;;8.60;1.58;;;4.20;99.90;;;;;;5052054;28;20037;-65
2021/12/01 21:17:11;;;;;;;7.00;1.15;;;4.10;99.90;;;;;;5053213;28;20119;-65
2021/12/01 21:19:37;;;;;;;6.13;1.33;;;4.00;99.90;;;;;;5053153;28;20084;-65
2021/12/01 21:22:07;;;;;;;4.03;1.10;;;3.90;99.90;;;;;;5052676;28;20043;-65
2021/12/01 21:24:35;;;;;;;16.13;1.73;;;3.90;99.90;;;;;;5036548;28;20033;-65
2021/12/01 21:27:04;;;;;;;4.93;0.95;;;3.90;99.90;;;;;;5050321;28;20405;-65
2021/12/01 21:29:35;;;;;;;6.03;1.20;;;3.80;99.90;;;;;;5053479;28;20040;-65
2021/12/01 21:32:08;;;;;;;6.20;1.33;;;3.90;99.90;;;;;;5041135;28;20032;-65
2021/12/01 21:34:38;;;;;;;7.10;1.52;;;4.00;99.90;;;;;;5061601;28;20041;-64
2021/12/01 21:37:06;;;;;;;;;;;4.10;99.90;;;;;;5060459;28;20048;-65
2021/12/01 21:39:32;;;;;;;9.82;1.40;;;4.10;99.90;;;;;;5065517;28;19916;-65
2021/12/01 21:41:59;;;;;;;6.03;1.27;;;4.10;99.90;;;;;;5030988;28;20037;-65
2021/12/01 21:44:25;;;;;;;11.90;1.25;;;4.00;99.90;;;;;;5031436;28;20041;-65
2021/12/01 21:46:51;;;;;;;6.22;1.13;;;3.90;99.90;;;;;;5031513;28;20053;-65
2021/12/01 21:49:16;;;;;;;6.63;1.48;;;3.90;99.90;;;;;;5049360;28;20033;-65
2021/12/01 21:51:44;;;;;;;9.38;1.35;;;3.80;99.90;;;;;;5027510;28;20043;-65
2021/12/01 21:54:10;;;;;;;8.32;1.27;;;3.70;99.90;;;;;;5062128;28;20432;-65
2021/12/01 21:56:40;;;;;;;7.40;1.30;;;3.70;99.90;;;;;;5043887;28;20129;-66
2021/12/01 21:59:07;;;;;;;10.35;1.95;;;3.70;99.90;;;;;;5063159;28;20133;-65
2021/12/01 22:01:32;;;;;;;5.40;1.00;;;3.80;99.90;;;;;;5034828;28;20045;-66
2021/12/01 22:03:59;;;;;;;9.50;1.80;;;3.70;99.90;;;;;;5049910;28;20401;-66
2021/12/01 22:06:25;;;;;;;9.38;1.30;;;3.70;99.90;;;;;;5043255;28;20033;-66
2021/12/01 22:08:51;;;;;;;8.63;1.35;;;3.60;99.90;;;;;;5045417;28;20146;-66
2021/12/01 22:11:17;;;;;;;4.05;1.73;;;3.70;99.90;;;;;;5017834;28;20087;-66
2021/12/01 22:13:43;;;;;;;8.65;1.58;;;3.70;99.90;;;;;;5030085;28;20411;-66
2021/12/01 22:16:10;;;;;;;6.82;1.90;;;3.80;99.90;;;;;;5039348;28;20128;-66
2021/12/01 22:18:36;;;;;;;5.75;1.63;;;3.90;99.90;;;;;;5038607;28;20075;-64
2021/12/01 22:21:11;;;;;;;9.27;1.70;;;3.90;99.90;;;;;;5060809;28;20067;-65
2021/12/01 22:23:38;;;;;;;7.18;1.83;;;3.90;99.90;;;;;;5041440;28;20166;-65
2021/12/01 22:26:11;;;;;;;5.32;1.38;;;3.80;99.90;;;;;;5032983;28;20445;-65
2021/12/01 22:28:42;;;;;;;7.13;1.25;;;3.80;99.90;;;;;;5045711;28;20623;-66
2021/12/01 22:31:10;;;;;;;9.57;1.10;;;3.70;99.90;;;;;;5032259;28;20059;-65
2021/12/01 22:33:39;;;;;;;5.82;1.35;;;3.70;99.90;;;;;;5041676;28;20580;-66
2021/12/01 22:36:05;;;;;;;10.57;1.20;;;3.60;99.90;;;;;;5054198;28;20059;-65
2021/12/01 22:38:31;;;;;;;12.63;1.73;;;3.60;99.90;;;;;;5050911;28;20283;-65
2021/12/01 22:40:56;;;;;;;6.50;1.27;;;3.50;99.90;;;;;;5052457;28;20369;-66
2021/12/01 22:43:22;;;;;;;6.10;1.50;;;3.50;99.90;;;;;;5049083;28;20514;-65
2021/12/01 22:45:48;;;;;;;3.97;1.02;;;3.50;99.90;;;;;;5085191;28;20037;-65
2021/12/01 22:48:15;;;;;;;3.70;1.02;;;3.50;99.90;;;;;;5051723;28;20067;-66
2021/12/01 22:50:41;;;;;;;4.43;1.08;;;3.50;99.90;;;;;;5060310;28;20036;-65
2021/12/01 22:53:06;;;;;;;8.55;1.20;;;3.40;99.90;;;;;;5060461;28;20484;-66
2021/12/01 22:55:32;;;;;;;4.00;1.23;;;3.40;99.90;;;;;;5051111;28;20032;-66
2021/12/01 22:58:00;;;;;;;6.82;1.02;;;3.40;99.90;;;;;;5054590;28;20117;-65
2021/12/01 23:00:25;;;;;;;6.80;1.10;;;3.40;99.90;;;;;;5058019;28;20173;-65
2021/12/01 23:03:21;;;;;;;7.32;2.00;;;3.40;99.90;;;;;;5062133;28;20482;-66
2021/12/01 23:05:49;;;;;;;4.78;0.98;;;3.40;99.90;;;;;;5055355;28;20048;-67
2021/12/01 23:08:17;;;;;;;8.68;0.90;;;3.40;99.90;;;;;;5052268;28;20043;-66
2021/12/01 23:10:45;;;;;;;7.45;1.13;;;3.50;99.90;;;;;;5084740;28;20159;-65
2021/12/01 23:13:12;;;;;;;5.85;1.00;;;3.40;99.90;;;;;;5051628;28;20587;-66
2021/12/01 23:15:38;;;;;;;8.93;1.02;;;3.40;99.90;;;;;;5046693;28;20045;-66
2021/12/01 23:18:08;;;;;;;5.80;1.00;;;3.40;99.90;;;;;;5039590;28;20062;-65
2021/12/01 23:20:36;;;;;;;7.53;1.02;;;3.40;99.90;;;;;;5045709;28;20040;-66
2021/12/01 23:23:14;;;;;;;5.70;0.98;;;3.40;99.90;;;;;;5053037;28;20358;-66
2021/12/01 23:28:31;;;;;;;5.22;1.00;;;3.30;99.90;;;;;;5059885;28;20066;-65
2021/12/01 23:30:57;;;;;;;3.58;1.08;;;3.30;99.90;;;;;;5061323;28;20048;-66
2021/12/01 23:33:36;;;;;;;5.25;0.82;;;3.30;99.90;;;;;;5054673;28;20067;-66
2021/12/01 23:36:02;;;;;;;2.97;0.93;;;3.30;99.90;;;;;;5057216;28;20404;-66
2021/12/01 23:38:28;;;;;;;4.90;0.90;;;3.30;99.90;;;;;;5050079;28;20132;-65
2021/12/01 23:40:54;;;;;;;4.55;0.80;;;3.30;99.90;;;;;;5069876;28;20123;-66
2021/12/01 23:43:19;;;;;;;8.07;1.40;;;3.40;99.90;;;;;;5057719;28;20139;-66
2021/12/01 23:48:33;;;;;;;5.25;1.33;;;3.40;99.90;;;;;;5062096;28;20052;-65
2021/12/01 23:53:48;;;;;;;6.25;1.40;;;3.30;99.90;;;;;;5045453;28;20051;-64
2021/12/01 23:56:14;;;;;;;3.30;0.90;;;3.30;99.90;;;;;;5067319;28;20032;-66
2021/12/01 23:58:41;;;;;;;6.80;1.25;;;3.20;99.90;;;;;;5056298;28;20037;-65
